createdAt,value
2023-02-19T00:02:12.775Z,4.92
2023-02-19T00:04:41.003Z,4.92
2023-02-19T00:07:07.952Z,4.90
2023-02-19T00:09:35.566Z,4.88
2023-02-19T00:12:03.454Z,4.86
2023-02-19T00:14:33.713Z,4.82
2023-02-19T00:17:02.220Z,4.80
2023-02-19T00:19:30.385Z,4.79
2023-02-19T00:24:35.872Z,4.80
2023-02-19T00:29:30.444Z,4.83
2023-02-19T00:34:24.717Z,4.88
2023-02-19T00:36:52.600Z,4.89
2023-02-19T00:39:23.411Z,4.93
2023-02-19T00:41:51.217Z,4.98
2023-02-19T00:44:18.426Z,5.03
2023-02-19T00:46:56.802Z,5.09
2023-02-19T00:49:24.614Z,5.16
2023-02-19T00:51:53.994Z,5.25
2023-02-19T00:54:26.828Z,5.32
2023-02-19T00:56:55.505Z,5.40
2023-02-19T00:59:23.519Z,5.48
2023-02-19T01:01:52.390Z,5.55
2023-02-19T01:04:20.224Z,5.62
2023-02-19T01:06:48.375Z,5.67
2023-02-19T01:09:16.108Z,5.72
2023-02-19T01:11:44.374Z,5.79
2023-02-19T01:14:13.339Z,5.84
2023-02-19T01:19:07.318Z,5.92
2023-02-19T01:21:35.092Z,5.97
2023-02-19T01:24:04.521Z,6.02
2023-02-19T01:26:36.168Z,6.04
2023-02-19T01:29:04.590Z,6.09
2023-02-19T01:31:32.754Z,6.12
2023-02-19T01:34:03.946Z,6.15
2023-02-19T01:36:33.951Z,6.16
2023-02-19T01:39:06.627Z,6.18
2023-02-19T01:41:40.087Z,6.18
2023-02-19T01:44:23.378Z,6.20
2023-02-19T01:46:52.794Z,6.22
2023-02-19T01:49:26.010Z,6.23
2023-02-19T01:52:07.701Z,6.23
2023-02-19T01:54:38.247Z,6.20
2023-02-19T01:57:11.136Z,6.17
2023-02-19T01:59:39.813Z,6.15
2023-02-19T02:02:08.573Z,6.14
2023-02-19T02:04:36.334Z,6.12
2023-02-19T02:07:11.271Z,6.10
2023-02-19T02:09:57.170Z,6.10
2023-02-19T02:12:24.651Z,6.11
2023-02-19T02:14:52.590Z,6.12
2023-02-19T02:17:37.736Z,6.13
2023-02-19T02:20:17.362Z,6.13
2023-02-19T02:23:05.321Z,6.15
2023-02-19T02:26:03.320Z,6.16
2023-02-19T02:29:05.729Z,6.16
2023-02-19T02:31:53.243Z,6.16
2023-02-19T02:34:29.279Z,6.17
2023-02-19T02:36:58.541Z,6.19
2023-02-19T02:39:28.213Z,6.21
2023-02-19T02:42:16.619Z,6.23
2023-02-19T02:44:47.078Z,6.27
2023-02-19T02:47:16.929Z,6.28
2023-02-19T02:49:47.442Z,6.29
2023-02-19T02:52:19.047Z,6.28
2023-02-19T02:55:04.872Z,6.26
2023-02-19T02:57:32.849Z,6.23
2023-02-19T03:00:00.806Z,6.18
2023-02-19T03:02:31.441Z,6.14
2023-02-19T03:05:29.138Z,6.09
2023-02-19T03:08:11.276Z,6.07
2023-02-19T03:10:54.970Z,6.03
2023-02-19T03:13:53.776Z,6.01
2023-02-19T03:16:47.138Z,5.98
2023-02-19T03:19:19.133Z,5.95
2023-02-19T03:22:09.626Z,5.92
2023-02-19T03:25:01.403Z,5.92
2023-02-19T03:27:31.931Z,5.90
2023-02-19T03:30:06.483Z,5.88
2023-02-19T03:33:00.684Z,5.87
2023-02-19T03:35:31.713Z,5.86
2023-02-19T03:38:11.932Z,5.84
2023-02-19T03:40:57.303Z,5.81
2023-02-19T03:43:49.838Z,5.79
2023-02-19T03:46:22.670Z,5.77
2023-02-19T03:49:01.753Z,5.77
2023-02-19T03:51:44.505Z,5.76
2023-02-19T03:54:35.934Z,5.78
2023-02-19T03:57:33.405Z,5.78
2023-02-19T04:00:54.241Z,5.80
2023-02-19T04:03:52.312Z,5.81
2023-02-19T04:06:30.135Z,5.82
2023-02-19T04:09:03.485Z,5.83
2023-02-19T04:11:32.707Z,5.84
2023-02-19T04:14:16.547Z,5.85
2023-02-19T04:16:50.258Z,5.86
2023-02-19T04:19:21.292Z,5.86
2023-02-19T04:21:51.067Z,5.87
2023-02-19T04:24:35.857Z,5.86
2023-02-19T04:27:05.748Z,5.86
2023-02-19T04:29:33.314Z,5.86
2023-02-19T04:32:01.079Z,5.89
2023-02-19T04:34:28.944Z,5.87
2023-02-19T04:36:57.065Z,5.86
2023-02-19T04:39:24.818Z,5.85
2023-02-19T04:41:52.600Z,5.86
2023-02-19T04:44:20.471Z,5.86
2023-02-19T04:46:48.283Z,5.85
2023-02-19T04:49:16.120Z,5.85
2023-02-19T04:51:44.036Z,5.83
2023-02-19T04:54:11.630Z,5.83
2023-02-19T04:56:40.274Z,5.81
2023-02-19T04:59:08.092Z,5.82
2023-02-19T05:01:35.686Z,5.81
2023-02-19T05:04:04.560Z,5.79
2023-02-19T05:06:32.405Z,5.77
2023-02-19T05:09:00.295Z,5.77
2023-02-19T05:11:28.180Z,5.77
2023-02-19T05:13:55.899Z,5.75
2023-02-19T05:16:23.860Z,5.74
2023-02-19T05:18:51.360Z,5.73
2023-02-19T05:21:19.124Z,5.72
2023-02-19T05:23:46.781Z,5.70
2023-02-19T05:26:19.886Z,5.67
2023-02-19T05:28:51.056Z,5.64
2023-02-19T05:31:19.976Z,5.62
2023-02-19T05:33:50.202Z,5.59
2023-02-19T05:36:20.602Z,5.59
2023-02-19T05:38:55.875Z,5.60
2023-02-19T05:41:30.820Z,5.61
2023-02-19T05:44:05.186Z,5.60
2023-02-19T05:46:34.397Z,5.61
2023-02-19T05:49:03.193Z,5.62
2023-02-19T05:51:30.795Z,5.64
2023-02-19T05:53:58.485Z,5.65
2023-02-19T05:56:35.920Z,5.66
2023-02-19T05:59:09.166Z,5.67
2023-02-19T06:01:36.931Z,5.70
2023-02-19T06:04:05.486Z,5.70
2023-02-19T06:06:33.474Z,5.67
2023-02-19T06:09:01.379Z,5.66
2023-02-19T06:11:29.826Z,5.65
2023-02-19T06:13:57.686Z,5.66
2023-02-19T06:16:26.275Z,5.67
2023-02-19T06:18:54.134Z,5.68
2023-02-19T06:21:23.888Z,5.68
2023-02-19T06:24:01.478Z,5.66
2023-02-19T06:26:29.765Z,5.63
2023-02-19T06:28:57.634Z,5.59
2023-02-19T06:31:25.622Z,5.53
2023-02-19T06:33:55.327Z,5.50
2023-02-19T06:36:23.734Z,5.52
2023-02-19T06:38:52.249Z,5.50
2023-02-19T06:41:19.946Z,5.50
2023-02-19T06:43:47.556Z,5.53
2023-02-19T06:46:15.235Z,5.56
2023-02-19T06:48:44.826Z,5.60
2023-02-19T06:51:15.639Z,5.65
2023-02-19T06:53:43.437Z,5.74
2023-02-19T06:56:27.808Z,5.87
2023-02-19T06:59:02.340Z,6.00
2023-02-19T07:01:32.866Z,6.15
2023-02-19T07:04:01.755Z,6.26
2023-02-19T07:06:31.098Z,6.40
2023-02-19T07:09:00.008Z,6.59
2023-02-19T07:11:31.873Z,6.85
2023-02-19T07:14:02.506Z,7.10
2023-02-19T07:16:30.981Z,7.32
2023-02-19T07:19:14.576Z,7.54
2023-02-19T07:21:42.166Z,7.64
2023-02-19T07:24:10.616Z,7.71
2023-02-19T07:26:38.384Z,7.81
2023-02-19T07:29:07.055Z,7.92
2023-02-19T07:31:35.387Z,8.03
2023-02-19T07:34:05.013Z,8.06
2023-02-19T07:36:33.412Z,8.06
2023-02-19T07:39:02.030Z,8.11
2023-02-19T07:41:29.938Z,8.23
2023-02-19T07:43:58.749Z,8.30
2023-02-19T07:46:26.827Z,8.35
2023-02-19T07:48:54.586Z,8.43
2023-02-19T07:51:23.392Z,8.56
2023-02-19T07:53:51.831Z,8.71
2023-02-19T07:59:15.682Z,8.94
2023-02-19T08:02:04.453Z,9.05
2023-02-19T08:04:35.243Z,9.17
2023-02-19T08:07:04.842Z,9.27
2023-02-19T08:12:36.150Z,9.51
2023-02-19T08:15:08.020Z,9.51
2023-02-19T08:20:00.533Z,9.35
2023-02-19T08:22:28.003Z,9.35
2023-02-19T08:24:57.775Z,9.35
2023-02-19T08:27:28.508Z,9.42
2023-02-19T08:30:11.852Z,9.52
2023-02-19T08:32:43.679Z,9.71
2023-02-19T08:35:30.922Z,9.77
2023-02-19T08:37:59.074Z,9.78
2023-02-19T08:40:25.889Z,9.83
2023-02-19T08:42:53.886Z,9.75
2023-02-19T08:45:23.689Z,9.86
2023-02-19T08:47:51.600Z,9.87
2023-02-19T08:50:23.945Z,9.86
2023-02-19T08:52:54.206Z,9.76
2023-02-19T08:55:21.959Z,9.61
2023-02-19T08:57:51.078Z,9.51
2023-02-19T09:00:20.827Z,9.45
2023-02-19T09:02:49.372Z,9.40
2023-02-19T09:05:17.574Z,9.37
2023-02-19T09:07:45.489Z,9.37
2023-02-19T09:10:14.062Z,9.39
2023-02-19T09:12:42.256Z,9.42
2023-02-19T09:15:10.131Z,9.44
2023-02-19T09:17:38.564Z,9.42
2023-02-19T09:20:07.654Z,9.38
2023-02-19T09:22:35.412Z,9.31
2023-02-19T09:25:03.940Z,9.27
2023-02-19T09:27:31.758Z,9.28
2023-02-19T09:29:59.802Z,9.30
2023-02-19T09:32:30.889Z,9.33
2023-02-19T09:34:59.187Z,9.33
2023-02-19T09:37:28.102Z,9.29
2023-02-19T09:39:55.745Z,9.28
2023-02-19T09:42:29.740Z,9.20
2023-02-19T09:45:00.155Z,9.18
2023-02-19T09:47:33.058Z,9.17
2023-02-19T09:50:12.202Z,9.17
2023-02-19T09:52:45.464Z,9.17
2023-02-19T09:55:38.991Z,9.17
2023-02-19T10:01:56.030Z,9.21
2023-02-19T10:04:25.564Z,9.25
2023-02-19T10:07:09.524Z,9.31
2023-02-19T10:09:38.677Z,9.40
2023-02-19T10:12:17.864Z,9.49
2023-02-19T10:14:49.801Z,9.58
2023-02-19T10:17:28.795Z,9.75
2023-02-19T10:19:58.038Z,9.88
2023-02-19T10:22:25.805Z,9.99
2023-02-19T10:24:56.243Z,10.02
2023-02-19T10:27:30.758Z,9.96
2023-02-19T10:30:00.766Z,9.90
2023-02-19T10:32:29.306Z,9.83
2023-02-19T10:35:15.872Z,9.80
2023-02-19T10:37:49.280Z,9.78
2023-02-19T10:40:27.055Z,9.77
2023-02-19T10:43:08.887Z,9.76
2023-02-19T10:45:53.374Z,9.76
2023-02-19T10:48:27.174Z,9.74
2023-02-19T10:51:10.861Z,9.71
2023-02-19T10:53:51.632Z,9.69
2023-02-19T10:56:35.655Z,9.68
2023-02-19T10:59:32.303Z,9.66
2023-02-19T11:02:07.094Z,9.66
2023-02-19T11:04:39.311Z,9.66
2023-02-19T11:07:17.333Z,9.63
2023-02-19T11:09:49.421Z,9.59
2023-02-19T11:12:24.726Z,9.50
2023-02-19T11:14:52.679Z,9.43
2023-02-19T11:17:32.104Z,9.40
2023-02-19T11:20:07.481Z,9.35
2023-02-19T11:22:39.242Z,9.36
2023-02-19T11:25:18.553Z,9.36
2023-02-19T11:28:09.109Z,9.31
2023-02-19T11:30:43.497Z,9.29
2023-02-19T11:33:22.097Z,9.28
2023-02-19T11:36:14.861Z,9.29
2023-02-19T11:38:44.330Z,9.29
2023-02-19T11:41:36.026Z,9.29
2023-02-19T11:44:51.024Z,9.29
2023-02-19T11:47:57.161Z,9.32
2023-02-19T11:50:50.906Z,9.33
2023-02-19T11:53:37.841Z,9.30
2023-02-19T11:56:19.493Z,9.30
2023-02-19T11:59:15.242Z,9.29
2023-02-19T12:02:14.341Z,9.33
2023-02-19T12:05:21.348Z,9.28
2023-02-19T12:08:32.786Z,9.26
2023-02-19T12:11:37.349Z,9.23
2023-02-19T12:16:56.709Z,9.19
2023-02-19T12:19:39.084Z,9.18
2023-02-19T12:25:23.613Z,9.12
2023-02-19T12:28:02.847Z,9.09
2023-02-19T12:30:49.906Z,9.03
2023-02-19T12:34:05.698Z,9.00
2023-02-19T12:39:23.097Z,8.96
2023-02-19T12:42:33.900Z,8.94
2023-02-19T12:45:07.180Z,8.91
2023-02-19T12:47:39.118Z,8.83
2023-02-19T12:50:23.790Z,8.77
2023-02-19T12:53:04.610Z,8.69
2023-02-19T12:55:43.254Z,8.63
2023-02-19T12:58:18.998Z,8.60
2023-02-19T13:00:54.647Z,8.53
2023-02-19T13:03:35.288Z,8.43
2023-02-19T13:06:36.510Z,8.39
2023-02-19T13:09:14.749Z,8.31
2023-02-19T13:12:21.165Z,8.25
2023-02-19T13:15:19.859Z,8.21
2023-02-19T13:23:27.394Z,8.17
2023-02-19T13:29:05.820Z,8.20
2023-02-19T13:31:53.809Z,8.22
2023-02-19T13:34:48.559Z,8.21
2023-02-19T13:42:36.058Z,8.20
2023-02-19T13:45:06.542Z,8.16
2023-02-19T13:47:58.227Z,8.15
2023-02-19T13:50:32.843Z,8.15
2023-02-19T13:55:51.932Z,8.16
2023-02-19T13:58:37.319Z,8.14
2023-02-19T14:03:57.808Z,8.10
2023-02-19T14:06:26.397Z,8.12
2023-02-19T14:08:59.680Z,8.11
2023-02-19T14:13:56.038Z,8.08
2023-02-19T14:16:40.599Z,8.06
2023-02-19T14:21:40.121Z,8.08
2023-02-19T14:24:14.666Z,8.09
2023-02-19T14:26:42.959Z,8.09
2023-02-19T14:29:14.128Z,8.12
2023-02-19T14:31:45.531Z,8.10
2023-02-19T14:37:01.311Z,8.07
2023-02-19T14:42:22.084Z,8.02
2023-02-19T14:44:59.486Z,8.00
2023-02-19T14:47:37.033Z,8.01
2023-02-19T14:50:15.793Z,8.00
2023-02-19T14:52:49.899Z,7.99
2023-02-19T14:57:49.282Z,7.88
2023-02-19T15:00:25.940Z,7.83
2023-02-19T15:05:27.694Z,7.81
2023-02-19T15:08:03.026Z,7.80
2023-02-19T15:10:31.970Z,7.78
2023-02-19T15:13:10.938Z,7.76
2023-02-19T15:15:43.127Z,7.73
2023-02-19T15:18:24.233Z,7.71
2023-02-19T15:21:00.903Z,7.70
2023-02-19T15:23:31.336Z,7.68
2023-02-19T15:25:59.858Z,7.64
2023-02-19T15:28:32.439Z,7.63
2023-02-19T15:31:05.443Z,7.62
2023-02-19T15:33:34.539Z,7.58
2023-02-19T15:36:11.110Z,7.56
2023-02-19T15:38:38.903Z,7.52
2023-02-19T15:41:07.074Z,7.49
2023-02-19T15:43:43.976Z,7.44
2023-02-19T15:46:21.772Z,7.44
2023-02-19T15:48:57.870Z,7.44
2023-02-19T15:53:56.348Z,7.39
2023-02-19T15:56:33.775Z,7.39
2023-02-19T15:59:28.720Z,7.38
2023-02-19T16:01:57.656Z,7.38
2023-02-19T16:04:25.284Z,7.38
2023-02-19T16:07:01.102Z,7.38
2023-02-19T16:09:39.911Z,7.37
2023-02-19T16:12:23.831Z,7.32
2023-02-19T16:17:25.613Z,7.18
2023-02-19T16:20:00.850Z,7.12
2023-02-19T16:22:33.353Z,7.06
2023-02-19T16:25:05.233Z,7.05
2023-02-19T16:27:41.319Z,7.06
2023-02-19T16:32:47.003Z,7.08
2023-02-19T16:35:36.211Z,7.08
2023-02-19T16:40:50.481Z,7.08
2023-02-19T16:45:55.786Z,7.01
2023-02-19T16:48:24.714Z,6.98
2023-02-19T16:50:51.585Z,6.96
2023-02-19T16:53:24.941Z,6.94
2023-02-19T16:55:52.760Z,6.92
2023-02-19T16:58:21.026Z,6.88
2023-02-19T17:00:52.310Z,6.83
2023-02-19T17:05:50.258Z,6.80
2023-02-19T17:08:36.764Z,6.80
2023-02-19T17:13:30.874Z,6.79
2023-02-19T17:15:58.937Z,6.77
2023-02-19T17:18:27.094Z,6.76
2023-02-19T17:21:12.441Z,6.74
2023-02-19T17:23:41.705Z,6.73
2023-02-19T17:26:16.854Z,6.74
2023-02-19T17:31:12.168Z,6.69
2023-02-19T17:36:07.901Z,6.72
2023-02-19T17:41:02.332Z,6.66
2023-02-19T17:43:30.637Z,6.64
2023-02-19T17:45:58.237Z,6.59
2023-02-19T17:48:26.414Z,6.56
2023-02-19T17:50:54.380Z,6.51
2023-02-19T17:53:22.334Z,6.49
2023-02-19T17:55:50.077Z,6.49
2023-02-19T17:58:20.155Z,6.49
2023-02-19T18:03:14.008Z,6.47
2023-02-19T18:05:41.990Z,6.45
2023-02-19T18:08:08.930Z,6.47
2023-02-19T18:10:36.975Z,6.46
2023-02-19T18:15:31.373Z,6.46
2023-02-19T18:20:28.227Z,6.47
2023-02-19T18:22:57.503Z,6.48
2023-02-19T18:25:41.098Z,6.47
2023-02-19T18:28:07.990Z,6.43
2023-02-19T18:30:36.370Z,6.43
2023-02-19T18:33:06.369Z,6.43
2023-02-19T18:35:37.669Z,6.43
2023-02-19T18:38:06.372Z,6.43
2023-02-19T18:40:34.249Z,6.47
2023-02-19T18:43:02.036Z,6.48
2023-02-19T18:45:31.716Z,6.45
2023-02-19T18:47:59.581Z,6.44
2023-02-19T18:50:27.295Z,6.41
2023-02-19T18:52:55.143Z,6.41
2023-02-19T18:55:23.098Z,6.39
2023-02-19T19:00:22.462Z,6.37
2023-02-19T19:02:57.026Z,6.35
2023-02-19T19:05:25.821Z,6.32
2023-02-19T19:07:55.927Z,6.29
2023-02-19T19:10:24.397Z,6.25
2023-02-19T19:12:51.720Z,6.20
2023-02-19T19:15:20.776Z,6.19
2023-02-19T19:17:48.673Z,6.19
2023-02-19T19:22:50.055Z,6.09
2023-02-19T19:27:46.180Z,6.03
2023-02-19T19:30:14.749Z,6.01
2023-02-19T19:32:42.634Z,5.99
2023-02-19T19:35:11.178Z,6.00
2023-02-19T19:40:06.276Z,5.96
2023-02-19T19:45:00.763Z,5.93
2023-02-19T19:47:28.899Z,5.89
2023-02-19T19:49:56.773Z,5.87
2023-02-19T19:52:24.496Z,5.85
2023-02-19T19:54:53.691Z,5.83
2023-02-19T19:57:21.691Z,5.81
2023-02-19T20:02:18.958Z,5.83
2023-02-19T20:07:13.191Z,5.81
2023-02-19T20:12:20.080Z,5.77
2023-02-19T20:14:48.463Z,5.73
2023-02-19T20:23:51.799Z,5.60
2023-02-19T20:26:51.071Z,5.54
2023-02-19T20:29:39.865Z,5.50
2023-02-19T20:32:14.895Z,5.47
2023-02-19T20:37:40.146Z,5.43
2023-02-19T20:42:36.493Z,5.44
2023-02-19T20:45:05.752Z,5.46
2023-02-19T20:47:33.547Z,5.44
2023-02-19T20:50:01.741Z,5.44
2023-02-19T20:52:29.587Z,5.42
2023-02-19T20:54:57.805Z,5.36
2023-02-19T20:57:27.940Z,5.38
2023-02-19T20:59:55.924Z,5.37
2023-02-19T21:02:28.421Z,5.37
2023-02-19T21:04:57.124Z,5.37
2023-02-19T21:07:26.728Z,5.37
2023-02-19T21:09:54.579Z,5.35
2023-02-19T21:12:22.607Z,5.33
2023-02-19T21:14:50.379Z,5.33
2023-02-19T21:17:18.449Z,5.33
2023-02-19T21:19:49.254Z,5.35
2023-02-19T21:22:17.206Z,5.36
2023-02-19T21:24:46.895Z,5.36
2023-02-19T21:27:15.136Z,5.36
2023-02-19T21:29:42.875Z,5.36
2023-02-19T21:34:37.670Z,5.34
2023-02-19T21:39:33.083Z,5.36
2023-02-19T21:42:02.014Z,5.36
2023-02-19T21:44:29.544Z,5.35
2023-02-19T21:46:57.618Z,5.37
2023-02-19T21:49:26.662Z,5.38
2023-02-19T21:51:54.276Z,5.37
2023-02-19T21:54:24.959Z,5.37
2023-02-19T21:56:54.546Z,5.38
2023-02-19T21:59:23.025Z,5.39
2023-02-19T22:01:50.930Z,5.38
2023-02-19T22:04:23.765Z,5.38
2023-02-19T22:06:56.579Z,5.33
2023-02-19T22:09:24.425Z,5.37
2023-02-19T22:14:17.952Z,5.35
2023-02-19T22:16:45.735Z,5.35
2023-02-19T22:19:13.348Z,5.35
2023-02-19T22:24:18.407Z,5.31
2023-02-19T22:26:49.501Z,5.30
2023-02-19T22:29:17.506Z,5.27
2023-02-19T22:31:45.474Z,5.20
2023-02-19T22:34:15.091Z,5.17
2023-02-19T22:36:43.664Z,5.14
2023-02-19T22:39:22.723Z,5.10
2023-02-19T22:41:51.251Z,5.07
2023-02-19T22:44:19.363Z,5.00
2023-02-19T22:46:58.661Z,4.97
2023-02-19T22:49:26.684Z,4.94
2023-02-19T22:52:07.786Z,4.87
2023-02-19T22:57:01.637Z,4.79
2023-02-19T23:01:56.360Z,4.71
2023-02-19T23:04:25.669Z,4.68
2023-02-19T23:06:52.671Z,4.66
2023-02-19T23:09:24.689Z,4.60
2023-02-19T23:11:53.749Z,4.52
2023-02-19T23:14:25.993Z,4.47
2023-02-19T23:16:53.351Z,4.41
2023-02-19T23:21:48.118Z,4.26
2023-02-19T23:24:16.925Z,4.18
2023-02-19T23:26:47.451Z,4.09
2023-02-19T23:31:41.559Z,3.94
2023-02-19T23:34:10.232Z,3.90
2023-02-19T23:36:47.331Z,3.85
2023-02-19T23:39:17.568Z,3.77
2023-02-19T23:41:52.546Z,3.69
2023-02-19T23:44:22.785Z,3.63
2023-02-19T23:46:51.612Z,3.58
2023-02-19T23:49:19.527Z,3.50
2023-02-19T23:51:47.424Z,3.42
2023-02-19T23:54:15.367Z,3.37
2023-02-19T23:56:43.269Z,3.28
2023-02-19T23:59:10.942Z,3.21
